sensor_id;sensor_type;location;lat;lon;timestamp;temperature;humidity
2391;DHT22;22957;50.824;4.360;2022-08-19T00:03:21;23.00;99.90
2391;DHT22;22957;50.824;4.360;2022-08-19T00:11:58;22.70;99.90
2391;DHT22;22957;50.824;4.360;2022-08-19T00:14:56;22.70;99.90
2391;DHT22;22957;50.824;4.360;2022-08-19T00:17:22;22.50;99.90
2391;DHT22;22957;50.824;4.360;2022-08-19T00:19:50;22.60;99.90
2391;DHT22;22957;50.824;4.360;2022-08-19T00:22:18;22.70;99.90
2391;DHT22;22957;50.824;4.360;2022-08-19T00:24:45;22.90;99.90
2391;DHT22;22957;50.824;4.360;2022-08-19T00:27:12;23.00;99.90
2391;DHT22;22957;50.824;4.360;2022-08-19T00:29:40;22.90;99.90
2391;DHT22;22957;50.824;4.360;2022-08-19T00:32:37;23.00;99.90
2391;DHT22;22957;50.824;4.360;2022-08-19T00:35:23;23.10;99.90
2391;DHT22;22957;50.824;4.360;2022-08-19T00:40:26;22.90;99.90
2391;DHT22;22957;50.824;4.360;2022-08-19T00:42:52;22.60;99.90
2391;DHT22;22957;50.824;4.360;2022-08-19T00:45:25;22.90;99.90
2391;DHT22;22957;50.824;4.360;2022-08-19T00:47:51;22.60;99.90
2391;DHT22;22957;50.824;4.360;2022-08-19T00:50:19;22.70;99.90
2391;DHT22;22957;50.824;4.360;2022-08-19T00:52:49;22.60;99.90
2391;DHT22;22957;50.824;4.360;2022-08-19T00:58:12;22.70;99.90
2391;DHT22;22957;50.824;4.360;2022-08-19T01:00:40;22.60;99.90
2391;DHT22;22957;50.824;4.360;2022-08-19T01:03:10;22.40;99.90
2391;DHT22;22957;50.824;4.360;2022-08-19T01:05:39;22.20;99.90
2391;DHT22;22957;50.824;4.360;2022-08-19T01:10:55;21.80;99.90
2391;DHT22;22957;50.824;4.360;2022-08-19T01:13:38;21.90;99.90
2391;DHT22;22957;50.824;4.360;2022-08-19T01:16:11;22.00;99.90
2391;DHT22;22957;50.824;4.360;2022-08-19T01:18:41;21.60;99.90
2391;DHT22;22957;50.824;4.360;2022-08-19T01:21:12;21.60;99.90
2391;DHT22;22957;50.824;4.360;2022-08-19T01:23:42;22.00;99.90
2391;DHT22;22957;50.824;4.360;2022-08-19T01:26:11;21.90;99.90
2391;DHT22;22957;50.824;4.360;2022-08-19T01:28:37;21.90;99.90
2391;DHT22;22957;50.824;4.360;2022-08-19T01:31:04;21.80;99.90
2391;DHT22;22957;50.824;4.360;2022-08-19T01:33:30;21.70;99.90
2391;DHT22;22957;50.824;4.360;2022-08-19T01:36:11;21.80;99.90
2391;DHT22;22957;50.824;4.360;2022-08-19T01:38:42;21.70;99.90
2391;DHT22;22957;50.824;4.360;2022-08-19T01:41:10;21.70;99.90
2391;DHT22;22957;50.824;4.360;2022-08-19T01:43:38;21.60;99.90
2391;DHT22;22957;50.824;4.360;2022-08-19T01:46:04;21.70;99.90
2391;DHT22;22957;50.824;4.360;2022-08-19T01:48:38;21.40;99.90
2391;DHT22;22957;50.824;4.360;2022-08-19T01:51:05;21.40;99.90
2391;DHT22;22957;50.824;4.360;2022-08-19T01:53:35;21.50;99.90
2391;DHT22;22957;50.824;4.360;2022-08-19T01:56:07;21.50;99.90
2391;DHT22;22957;50.824;4.360;2022-08-19T01:58:43;21.30;99.90
2391;DHT22;22957;50.824;4.360;2022-08-19T02:01:19;21.10;99.90
2391;DHT22;22957;50.824;4.360;2022-08-19T02:03:45;21.20;99.90
2391;DHT22;22957;50.824;4.360;2022-08-19T02:06:11;21.30;99.90
2391;DHT22;22957;50.824;4.360;2022-08-19T02:08:38;21.00;99.90
2391;DHT22;22957;50.824;4.360;2022-08-19T02:11:06;21.00;99.90
2391;DHT22;22957;50.824;4.360;2022-08-19T02:13:32;21.00;99.90
2391;DHT22;22957;50.824;4.360;2022-08-19T02:15:59;20.90;99.90
2391;DHT22;22957;50.824;4.360;2022-08-19T02:18:26;20.70;99.90
2391;DHT22;22957;50.824;4.360;2022-08-19T02:20:52;20.70;99.90
2391;DHT22;22957;50.824;4.360;2022-08-19T02:23:18;20.70;99.90
2391;DHT22;22957;50.824;4.360;2022-08-19T02:25:46;20.80;99.90
2391;DHT22;22957;50.824;4.360;2022-08-19T02:28:13;20.70;99.90
2391;DHT22;22957;50.824;4.360;2022-08-19T02:30:44;20.60;99.90
2391;DHT22;22957;50.824;4.360;2022-08-19T02:33:10;20.50;99.90
2391;DHT22;22957;50.824;4.360;2022-08-19T02:35:35;20.50;99.90
2391;DHT22;22957;50.824;4.360;2022-08-19T02:38:02;20.40;99.90
2391;DHT22;22957;50.824;4.360;2022-08-19T02:40:50;20.40;99.90
2391;DHT22;22957;50.824;4.360;2022-08-19T02:43:19;20.20;99.90
2391;DHT22;22957;50.824;4.360;2022-08-19T02:45:46;20.10;99.90
2391;DHT22;22957;50.824;4.360;2022-08-19T02:48:15;20.10;99.90
2391;DHT22;22957;50.824;4.360;2022-08-19T02:50:42;20.10;99.90
2391;DHT22;22957;50.824;4.360;2022-08-19T02:53:09;20.10;99.90
2391;DHT22;22957;50.824;4.360;2022-08-19T02:55:35;20.00;99.90
2391;DHT22;22957;50.824;4.360;2022-08-19T02:58:01;20.00;99.90
2391;DHT22;22957;50.824;4.360;2022-08-19T03:00:27;20.20;99.90
2391;DHT22;22957;50.824;4.360;2022-08-19T03:02:53;20.20;99.90
2391;DHT22;22957;50.824;4.360;2022-08-19T03:05:41;20.10;99.90
2391;DHT22;22957;50.824;4.360;2022-08-19T03:08:13;20.20;99.90
2391;DHT22;22957;50.824;4.360;2022-08-19T03:10:41;20.20;99.90
2391;DHT22;22957;50.824;4.360;2022-08-19T03:13:10;19.90;99.90
2391;DHT22;22957;50.824;4.360;2022-08-19T03:15:40;19.70;99.90
2391;DHT22;22957;50.824;4.360;2022-08-19T03:18:14;19.90;99.90
2391;DHT22;22957;50.824;4.360;2022-08-19T03:20:47;19.80;99.90
2391;DHT22;22957;50.824;4.360;2022-08-19T03:23:13;19.80;99.90
2391;DHT22;22957;50.824;4.360;2022-08-19T03:25:41;19.90;99.90
2391;DHT22;22957;50.824;4.360;2022-08-19T03:28:14;19.90;99.90
2391;DHT22;22957;50.824;4.360;2022-08-19T03:30:43;20.00;99.90
2391;DHT22;22957;50.824;4.360;2022-08-19T03:33:11;19.90;99.90
2391;DHT22;22957;50.824;4.360;2022-08-19T03:35:37;19.70;99.90
2391;DHT22;22957;50.824;4.360;2022-08-19T03:38:05;19.60;99.90
2391;DHT22;22957;50.824;4.360;2022-08-19T03:40:32;19.60;99.90
2391;DHT22;22957;50.824;4.360;2022-08-19T03:43:01;19.70;99.90
2391;DHT22;22957;50.824;4.360;2022-08-19T03:45:27;19.60;99.90
2391;DHT22;22957;50.824;4.360;2022-08-19T03:47:54;19.20;99.90
2391;DHT22;22957;50.824;4.360;2022-08-19T03:50:22;19.20;99.90
2391;DHT22;22957;50.824;4.360;2022-08-19T03:52:49;19.10;99.90
2391;DHT22;22957;50.824;4.360;2022-08-19T03:55:16;19.40;99.90
2391;DHT22;22957;50.824;4.360;2022-08-19T03:57:43;19.50;99.90
2391;DHT22;22957;50.824;4.360;2022-08-19T04:00:11;19.40;99.90
2391;DHT22;22957;50.824;4.360;2022-08-19T04:02:38;19.60;99.90
2391;DHT22;22957;50.824;4.360;2022-08-19T04:05:05;19.60;99.90
2391;DHT22;22957;50.824;4.360;2022-08-19T04:07:32;19.60;99.90
2391;DHT22;22957;50.824;4.360;2022-08-19T04:09:59;19.60;99.90
2391;DHT22;22957;50.824;4.360;2022-08-19T04:12:25;19.40;99.90
2391;DHT22;22957;50.824;4.360;2022-08-19T04:14:51;19.50;99.90
2391;DHT22;22957;50.824;4.360;2022-08-19T04:17:18;19.30;99.90
2391;DHT22;22957;50.824;4.360;2022-08-19T04:19:44;19.40;99.90
2391;DHT22;22957;50.824;4.360;2022-08-19T04:22:10;19.10;99.90
2391;DHT22;22957;50.824;4.360;2022-08-19T04:24:37;19.10;99.90
2391;DHT22;22957;50.824;4.360;2022-08-19T04:27:03;18.90;99.90
2391;DHT22;22957;50.824;4.360;2022-08-19T04:29:29;19.00;99.90
2391;DHT22;22957;50.824;4.360;2022-08-19T04:31:56;19.10;99.90
2391;DHT22;22957;50.824;4.360;2022-08-19T04:34:25;19.30;99.90
2391;DHT22;22957;50.824;4.360;2022-08-19T04:36:52;19.40;99.90
2391;DHT22;22957;50.824;4.360;2022-08-19T04:39:22;19.20;99.90
2391;DHT22;22957;50.824;4.360;2022-08-19T04:41:49;19.00;99.90
2391;DHT22;22957;50.824;4.360;2022-08-19T04:47:10;18.90;99.90
2391;DHT22;22957;50.824;4.360;2022-08-19T04:49:36;19.20;99.90
2391;DHT22;22957;50.824;4.360;2022-08-19T04:54:35;19.10;99.90
2391;DHT22;22957;50.824;4.360;2022-08-19T04:57:01;19.20;99.90
2391;DHT22;22957;50.824;4.360;2022-08-19T04:59:26;19.10;99.90
2391;DHT22;22957;50.824;4.360;2022-08-19T05:01:53;19.00;99.90
2391;DHT22;22957;50.824;4.360;2022-08-19T05:04:21;19.00;99.90
2391;DHT22;22957;50.824;4.360;2022-08-19T05:06:49;18.90;99.90
2391;DHT22;22957;50.824;4.360;2022-08-19T05:09:16;19.30;99.90
2391;DHT22;22957;50.824;4.360;2022-08-19T05:11:44;19.40;99.90
2391;DHT22;22957;50.824;4.360;2022-08-19T05:14:11;19.60;99.90
2391;DHT22;22957;50.824;4.360;2022-08-19T05:19:20;19.80;99.90
2391;DHT22;22957;50.824;4.360;2022-08-19T05:22:05;20.20;99.90
2391;DHT22;22957;50.824;4.360;2022-08-19T05:30:20;20.80;99.90
2391;DHT22;22957;50.824;4.360;2022-08-19T05:52:21;22.20;99.90
2391;DHT22;22957;50.824;4.360;2022-08-19T05:54:49;22.00;99.90
2391;DHT22;22957;50.824;4.360;2022-08-19T05:57:16;22.10;99.90
2391;DHT22;22957;50.824;4.360;2022-08-19T05:59:42;22.40;99.90
2391;DHT22;22957;50.824;4.360;2022-08-19T06:02:11;21.90;99.90
2391;DHT22;22957;50.824;4.360;2022-08-19T06:04:36;21.90;99.90
2391;DHT22;22957;50.824;4.360;2022-08-19T06:07:03;22.10;99.90
2391;DHT22;22957;50.824;4.360;2022-08-19T06:09:29;21.90;99.90
2391;DHT22;22957;50.824;4.360;2022-08-19T06:11:57;22.30;99.90
2391;DHT22;22957;50.824;4.360;2022-08-19T06:14:32;22.40;99.90
2391;DHT22;22957;50.824;4.360;2022-08-19T06:17:00;22.90;99.90
2391;DHT22;22957;50.824;4.360;2022-08-19T06:19:28;23.20;99.90
2391;DHT22;22957;50.824;4.360;2022-08-19T06:21:59;23.30;99.90
2391;DHT22;22957;50.824;4.360;2022-08-19T06:24:27;23.30;99.90
2391;DHT22;22957;50.824;4.360;2022-08-19T06:26:55;23.10;99.90
2391;DHT22;22957;50.824;4.360;2022-08-19T06:29:23;22.30;99.90
2391;DHT22;22957;50.824;4.360;2022-08-19T06:31:51;22.40;99.90
2391;DHT22;22957;50.824;4.360;2022-08-19T06:34:17;22.60;99.90
2391;DHT22;22957;50.824;4.360;2022-08-19T06:37:03;22.30;99.90
2391;DHT22;22957;50.824;4.360;2022-08-19T06:39:36;22.40;99.90
2391;DHT22;22957;50.824;4.360;2022-08-19T06:42:05;23.10;99.90
2391;DHT22;22957;50.824;4.360;2022-08-19T06:47:09;23.30;99.90
2391;DHT22;22957;50.824;4.360;2022-08-19T06:49:36;23.80;99.90
2391;DHT22;22957;50.824;4.360;2022-08-19T06:52:04;23.70;99.90
2391;DHT22;22957;50.824;4.360;2022-08-19T06:54:33;23.70;99.90
2391;DHT22;22957;50.824;4.360;2022-08-19T06:57:24;23.80;99.90
2391;DHT22;22957;50.824;4.360;2022-08-19T06:59:51;23.80;99.90
2391;DHT22;22957;50.824;4.360;2022-08-19T07:07:33;23.60;99.90
2391;DHT22;22957;50.824;4.360;2022-08-19T08:13:03;24.10;99.90
2391;DHT22;22957;50.824;4.360;2022-08-19T08:15:33;24.60;99.90
2391;DHT22;22957;50.824;4.360;2022-08-19T08:18:05;24.50;99.90
2391;DHT22;22957;50.824;4.360;2022-08-19T08:26:06;25.00;99.90
2391;DHT22;22957;50.824;4.360;2022-08-19T08:28:39;25.10;99.90
2391;DHT22;22957;50.824;4.360;2022-08-19T08:33:54;25.10;99.90
2391;DHT22;22957;50.824;4.360;2022-08-19T08:36:20;25.00;99.90
2391;DHT22;22957;50.824;4.360;2022-08-19T08:38:46;24.70;99.90
2391;DHT22;22957;50.824;4.360;2022-08-19T08:41:31;24.60;99.90
2391;DHT22;22957;50.824;4.360;2022-08-19T08:44:01;24.50;99.90
2391;DHT22;22957;50.824;4.360;2022-08-19T08:46:45;24.60;99.90
2391;DHT22;22957;50.824;4.360;2022-08-19T08:54:41;24.90;99.90
2391;DHT22;22957;50.824;4.360;2022-08-19T09:00:27;24.60;99.90
2391;DHT22;22957;50.824;4.360;2022-08-19T09:02:55;24.70;99.90
2391;DHT22;22957;50.824;4.360;2022-08-19T09:21:12;24.50;99.90
2391;DHT22;22957;50.824;4.360;2022-08-19T09:49:25;24.90;99.90
2391;DHT22;22957;50.824;4.360;2022-08-19T09:51:52;24.70;99.90
2391;DHT22;22957;50.824;4.360;2022-08-19T09:54:40;24.70;99.90
2391;DHT22;22957;50.824;4.360;2022-08-19T09:57:05;25.10;99.90
2391;DHT22;22957;50.824;4.360;2022-08-19T09:59:32;25.10;99.90
2391;DHT22;22957;50.824;4.360;2022-08-19T10:02:09;25.10;99.90
2391;DHT22;22957;50.824;4.360;2022-08-19T10:04:40;25.30;99.90
2391;DHT22;22957;50.824;4.360;2022-08-19T10:07:24;25.50;99.90
2391;DHT22;22957;50.824;4.360;2022-08-19T10:09:50;25.40;99.90
2391;DHT22;22957;50.824;4.360;2022-08-19T10:12:16;25.80;99.90
2391;DHT22;22957;50.824;4.360;2022-08-19T10:14:43;25.90;99.90
2391;DHT22;22957;50.824;4.360;2022-08-19T10:17:09;26.10;99.90
2391;DHT22;22957;50.824;4.360;2022-08-19T10:19:41;26.20;99.90
2391;DHT22;22957;50.824;4.360;2022-08-19T10:35:27;25.90;99.90
2391;DHT22;22957;50.824;4.360;2022-08-19T10:37:59;25.80;99.90
2391;DHT22;22957;50.824;4.360;2022-08-19T10:40:47;25.90;99.90
2391;DHT22;22957;50.824;4.360;2022-08-19T10:43:13;25.90;99.90
2391;DHT22;22957;50.824;4.360;2022-08-19T10:45:40;26.00;99.90
2391;DHT22;22957;50.824;4.360;2022-08-19T13:21:37;29.00;99.90
2391;DHT22;22957;50.824;4.360;2022-08-19T13:24:04;28.90;99.90
2391;DHT22;22957;50.824;4.360;2022-08-19T16:42:42;25.90;99.90
2391;DHT22;22957;50.824;4.360;2022-08-19T16:45:08;25.70;99.90
2391;DHT22;22957;50.824;4.360;2022-08-19T16:47:35;25.60;99.90
2391;DHT22;22957;50.824;4.360;2022-08-19T16:50:03;25.30;99.90
2391;DHT22;22957;50.824;4.360;2022-08-19T16:52:33;25.40;99.90
2391;DHT22;22957;50.824;4.360;2022-08-19T16:55:02;25.10;99.90
2391;DHT22;22957;50.824;4.360;2022-08-19T16:57:29;25.10;99.90
2391;DHT22;22957;50.824;4.360;2022-08-19T16:59:56;25.10;99.90
2391;DHT22;22957;50.824;4.360;2022-08-19T17:02:22;24.80;99.90
2391;DHT22;22957;50.824;4.360;2022-08-19T17:04:52;24.60;99.90
2391;DHT22;22957;50.824;4.360;2022-08-19T17:07:19;24.40;99.90
2391;DHT22;22957;50.824;4.360;2022-08-19T17:09:45;24.40;99.90
2391;DHT22;22957;50.824;4.360;2022-08-19T17:12:11;24.50;99.90
2391;DHT22;22957;50.824;4.360;2022-08-19T17:14:37;24.60;99.90
2391;DHT22;22957;50.824;4.360;2022-08-19T17:17:03;24.60;99.90
2391;DHT22;22957;50.824;4.360;2022-08-19T17:19:30;24.50;99.90
2391;DHT22;22957;50.824;4.360;2022-08-19T17:21:56;24.60;99.90
2391;DHT22;22957;50.824;4.360;2022-08-19T17:24:22;24.60;99.90
2391;DHT22;22957;50.824;4.360;2022-08-19T17:26:49;24.40;99.90
2391;DHT22;22957;50.824;4.360;2022-08-19T17:29:14;24.60;99.90
2391;DHT22;22957;50.824;4.360;2022-08-19T17:31:40;23.80;99.90
2391;DHT22;22957;50.824;4.360;2022-08-19T17:34:06;23.70;99.90
2391;DHT22;22957;50.824;4.360;2022-08-19T17:36:34;23.30;99.90
2391;DHT22;22957;50.824;4.360;2022-08-19T17:39:03;23.20;99.90
2391;DHT22;22957;50.824;4.360;2022-08-19T17:41:29;23.00;99.90
2391;DHT22;22957;50.824;4.360;2022-08-19T17:43:55;22.70;99.90
2391;DHT22;22957;50.824;4.360;2022-08-19T17:46:22;22.80;99.90
2391;DHT22;22957;50.824;4.360;2022-08-19T17:48:50;22.50;99.90
2391;DHT22;22957;50.824;4.360;2022-08-19T17:53:48;22.60;99.90
2391;DHT22;22957;50.824;4.360;2022-08-19T17:56:15;22.50;99.90
2391;DHT22;22957;50.824;4.360;2022-08-19T17:58:41;22.50;99.90
2391;DHT22;22957;50.824;4.360;2022-08-19T18:01:11;22.40;99.90
2391;DHT22;22957;50.824;4.360;2022-08-19T18:03:39;22.40;99.90
2391;DHT22;22957;50.824;4.360;2022-08-19T18:06:09;22.50;99.90
2391;DHT22;22957;50.824;4.360;2022-08-19T18:08:39;22.60;99.90
2391;DHT22;22957;50.824;4.360;2022-08-19T18:11:08;22.40;99.90
2391;DHT22;22957;50.824;4.360;2022-08-19T18:13:34;22.30;99.90
2391;DHT22;22957;50.824;4.360;2022-08-19T18:16:02;22.50;99.90
2391;DHT22;22957;50.824;4.360;2022-08-19T18:18:28;22.70;99.90
2391;DHT22;22957;50.824;4.360;2022-08-19T18:20:55;22.60;99.90
2391;DHT22;22957;50.824;4.360;2022-08-19T18:23:22;22.60;99.90
2391;DHT22;22957;50.824;4.360;2022-08-19T18:25:49;22.60;99.90
2391;DHT22;22957;50.824;4.360;2022-08-19T18:28:15;22.60;99.90
2391;DHT22;22957;50.824;4.360;2022-08-19T18:30:42;22.30;99.90
2391;DHT22;22957;50.824;4.360;2022-08-19T18:33:09;22.40;99.90
2391;DHT22;22957;50.824;4.360;2022-08-19T18:35:42;22.40;99.90
2391;DHT22;22957;50.824;4.360;2022-08-19T18:38:28;22.60;99.90
2391;DHT22;22957;50.824;4.360;2022-08-19T18:41:12;22.70;99.90
2391;DHT22;22957;50.824;4.360;2022-08-19T18:44:01;22.50;99.90
2391;DHT22;22957;50.824;4.360;2022-08-19T18:46:45;22.40;99.90
2391;DHT22;22957;50.824;4.360;2022-08-19T18:49:33;22.20;99.90
2391;DHT22;22957;50.824;4.360;2022-08-19T18:52:03;22.30;99.90
2391;DHT22;22957;50.824;4.360;2022-08-19T18:54:29;22.30;99.90
2391;DHT22;22957;50.824;4.360;2022-08-19T18:57:15;22.40;99.90
2391;DHT22;22957;50.824;4.360;2022-08-19T18:59:45;22.30;99.90
2391;DHT22;22957;50.824;4.360;2022-08-19T19:02:25;22.50;99.90
2391;DHT22;22957;50.824;4.360;2022-08-19T19:05:17;22.10;99.90
2391;DHT22;22957;50.824;4.360;2022-08-19T19:29:26;21.90;99.90
2391;DHT22;22957;50.824;4.360;2022-08-19T19:34:40;22.10;99.90
2391;DHT22;22957;50.824;4.360;2022-08-19T19:40:06;21.90;99.90
2391;DHT22;22957;50.824;4.360;2022-08-19T19:48:38;21.80;99.90
2391;DHT22;22957;50.824;4.360;2022-08-19T22:29:08;20.90;99.90
2391;DHT22;22957;50.824;4.360;2022-08-19T22:31:49;20.90;99.90
2391;DHT22;22957;50.824;4.360;2022-08-19T22:34:26;21.00;99.90
2391;DHT22;22957;50.824;4.360;2022-08-19T22:36:52;20.90;99.90
2391;DHT22;22957;50.824;4.360;2022-08-19T22:41:55;21.10;99.90
2391;DHT22;22957;50.824;4.360;2022-08-19T22:44:21;21.30;99.90
2391;DHT22;22957;50.824;4.360;2022-08-19T22:46:48;21.30;99.90
2391;DHT22;22957;50.824;4.360;2022-08-19T22:49:18;21.10;99.90
2391;DHT22;22957;50.824;4.360;2022-08-19T22:52:05;21.30;99.90
2391;DHT22;22957;50.824;4.360;2022-08-19T22:54:43;21.20;99.90
2391;DHT22;22957;50.824;4.360;2022-08-19T23:04:58;21.00;99.90
2391;DHT22;22957;50.824;4.360;2022-08-19T23:07:25;21.10;99.90
2391;DHT22;22957;50.824;4.360;2022-08-19T23:09:51;20.90;99.90
2391;DHT22;22957;50.824;4.360;2022-08-19T23:12:32;20.90;99.90
2391;DHT22;22957;50.824;4.360;2022-08-19T23:15:04;20.80;99.90
2391;DHT22;22957;50.824;4.360;2022-08-19T23:17:30;20.60;99.90
2391;DHT22;22957;50.824;4.360;2022-08-19T23:19:55;20.80;99.90
2391;DHT22;22957;50.824;4.360;2022-08-19T23:22:21;20.40;99.90
2391;DHT22;22957;50.824;4.360;2022-08-19T23:24:47;20.20;99.90
2391;DHT22;22957;50.824;4.360;2022-08-19T23:27:12;20.20;99.90
2391;DHT22;22957;50.824;4.360;2022-08-19T23:29:56;20.30;99.90
2391;DHT22;22957;50.824;4.360;2022-08-19T23:32:41;20.10;99.90
2391;DHT22;22957;50.824;4.360;2022-08-19T23:35:12;20.10;99.90
2391;DHT22;22957;50.824;4.360;2022-08-19T23:37:37;20.20;99.90
2391;DHT22;22957;50.824;4.360;2022-08-19T23:40:05;20.10;99.90
2391;DHT22;22957;50.824;4.360;2022-08-19T23:42:33;19.90;99.90
2391;DHT22;22957;50.824;4.360;2022-08-19T23:45:03;19.90;99.90
2391;DHT22;22957;50.824;4.360;2022-08-19T23:47:31;19.90;99.90
2391;DHT22;22957;50.824;4.360;2022-08-19T23:49:59;19.70;99.90
2391;DHT22;22957;50.824;4.360;2022-08-19T23:52:30;19.70;99.90
2391;DHT22;22957;50.824;4.360;2022-08-19T23:54:59;19.60;99.90
2391;DHT22;22957;50.824;4.360;2022-08-19T23:57:26;19.80;99.90
2391;DHT22;22957;50.824;4.360;2022-08-19T23:59:51;19.80;99.90
